Time;durP1;ratioP1;P1;durP2;ratioP2;P2;SDS_P1;SDS_P2;PMS_P1;PMS_P2;Temp;Humidity;BMP_temperature;BMP_pressure;BME280_temperature;BME280_humidity;BME280_pressure;Samples;Min_cycle;Max_cycle;Signal;HPM_P1;HPM_P2
2022/03/30 00:00:11;;;;;;;36.00;18.30;;;;;;;2.76;85.01;98436.55;103524;1300;22590;-26
2022/03/30 00:02:37;;;;;;;34.90;16.70;;;;;;;2.60;85.30;98435.11;103597;1300;23599;-29
2022/03/30 00:05:04;;;;;;;39.70;16.40;;;;;;;2.72;85.53;98432.94;103592;1300;24370;-25
2022/03/30 00:07:31;;;;;;;36.10;18.50;;;;;;;2.86;85.06;98432.96;103589;1300;22498;-30
2022/03/30 00:09:58;;;;;;;46.50;18.00;;;;;;;2.64;85.69;98432.82;103552;1300;24281;-30
2022/03/30 00:12:24;;;;;;;30.60;14.90;;;;;;;2.63;86.07;98434.34;103557;1300;22520;-28
2022/03/30 00:14:51;;;;;;;36.70;16.40;;;;;;;2.85;85.66;98430.10;103564;1300;22770;-25
2022/03/30 00:17:17;;;;;;;35.90;15.70;;;;;;;3.03;85.05;98425.63;103570;1300;24250;-28
2022/03/30 00:19:43;;;;;;;46.80;19.30;;;;;;;3.29;84.19;98425.27;103508;1299;24309;-29
2022/03/30 00:22:09;;;;;;;40.90;17.90;;;;;;;3.36;83.62;98424.87;103539;1300;24259;-30
2022/03/30 00:24:36;;;;;;;38.30;17.20;;;;;;;3.19;84.01;98427.44;103581;1300;23639;-25
2022/03/30 00:27:02;;;;;;;40.30;18.20;;;;;;;3.03;84.58;98427.02;103563;1300;22525;-25
2022/03/30 00:29:28;;;;;;;34.90;16.30;;;;;;;2.95;85.15;98427.58;103589;1300;22645;-29
2022/03/30 00:31:54;;;;;;;36.80;17.10;;;;;;;2.99;85.26;98421.83;103578;1302;22516;-27
2022/03/30 00:34:20;;;;;;;42.30;17.90;;;;;;;3.13;84.91;98418.65;103557;1300;24289;-25
2022/03/30 00:36:45;;;;;;;42.90;18.40;;;;;;;3.23;84.09;98418.34;103554;1300;24228;-27
2022/03/30 00:39:11;;;;;;;44.70;15.70;;;;;;;3.20;84.14;98411.50;103413;1302;23802;-28
2022/03/30 00:41:37;;;;;;;35.70;17.00;;;;;;;3.13;84.18;98412.21;103526;1300;22645;-29
2022/03/30 00:44:10;;;;;;;45.80;16.40;;;;;;;3.04;84.70;98408.64;103598;1300;22504;-28
2022/03/30 00:46:35;;;;;;;36.80;15.80;;;;;;;3.34;83.61;98409.64;103599;1300;22522;-25
2022/03/30 00:49:02;;;;;;;38.50;18.40;;;;;;;3.07;84.13;98406.56;103473;1302;24202;-30
2022/03/30 00:51:28;;;;;;;37.80;15.70;;;;;;;3.24;84.07;98403.36;103536;1300;23597;-26
2022/03/30 00:53:53;;;;;;;37.20;17.10;;;;;;;3.22;83.49;98403.98;103564;1300;24263;-26
2022/03/30 00:56:19;;;;;;;37.40;18.00;;;;;;;3.13;83.70;98403.35;103573;1300;24213;-29
2022/03/30 00:58:45;;;;;;;33.80;16.90;;;;;;;2.86;84.33;98402.75;103529;1300;24294;-29
2022/03/30 01:01:11;;;;;;;36.50;16.70;;;;;;;2.73;84.90;98404.29;103545;1300;24202;-29
2022/03/30 01:03:37;;;;;;;35.00;17.60;;;;;;;2.68;84.90;98403.17;103559;1300;24285;-29
2022/03/30 01:06:03;;;;;;;38.70;17.60;;;;;;;2.60;84.98;98402.61;103568;1302;24267;-30
2022/03/30 01:08:28;;;;;;;35.50;17.10;;;;;;;2.56;85.01;98401.39;103501;1300;24349;-29
2022/03/30 01:10:54;;;;;;;39.30;19.30;;;;;;;2.61;84.69;98397.56;103555;1300;24217;-27
2022/03/30 01:13:20;;;;;;;34.40;15.60;;;;;;;2.52;84.69;98394.34;103532;1300;22724;-25
2022/03/30 01:15:46;;;;;;;36.50;17.60;;;;;;;2.51;84.93;98392.96;103538;1300;24343;-25
2022/03/30 01:18:13;;;;;;;27.80;15.90;;;;;;;2.55;84.98;98387.81;103630;1300;24217;-28
2022/03/30 01:20:39;;;;;;;43.10;20.40;;;;;;;2.67;84.75;98390.89;103584;1300;22512;-28
2022/03/30 01:23:05;;;;;;;31.30;16.30;;;;;;;2.88;84.39;98384.27;103492;1302;24230;-27
2022/03/30 01:25:31;;;;;;;48.80;20.60;;;;;;;2.86;84.28;98384.72;103486;1302;24419;-31
2022/03/30 01:27:58;;;;;;;41.30;16.70;;;;;;;2.77;84.85;98389.36;103588;1300;22515;-26
2022/03/30 01:32:53;;;;;;;33.40;16.00;;;;;;;2.62;84.66;98391.55;103552;1300;22725;-29
2022/03/30 01:35:19;;;;;;;39.30;17.30;;;;;;;2.45;85.03;98385.23;103495;1301;24195;-29
2022/03/30 01:37:44;;;;;;;40.10;18.30;;;;;;;2.35;85.33;98381.14;103597;1301;22503;-26
2022/03/30 01:40:10;;;;;;;41.00;18.50;;;;;;;2.23;85.79;98380.14;103539;1300;24280;-26
2022/03/30 01:42:36;;;;;;;29.00;15.20;;;;;;;2.26;85.66;98378.04;103546;1300;24248;-26
2022/03/30 01:45:03;;;;;;;46.00;17.30;;;;;;;2.23;86.18;98372.45;103604;1300;24262;-27
2022/03/30 01:47:29;;;;;;;34.40;15.70;;;;;;;2.31;85.68;98367.10;103614;1300;24259;-29
2022/03/30 01:49:55;;;;;;;35.80;18.00;;;;;;;2.24;86.03;98367.58;103543;1300;22500;-26
2022/03/30 01:52:21;;;;;;;38.30;17.30;;;;;;;2.19;86.13;98362.06;103460;1302;24311;-26
2022/03/30 01:54:47;;;;;;;50.50;18.30;;;;;;;2.25;86.19;98361.59;103514;1302;24252;-26
2022/03/30 01:57:13;;;;;;;42.70;17.80;;;;;;;2.44;85.66;98356.34;103591;1300;24319;-30
2022/03/30 01:59:40;;;;;;;45.40;17.80;;;;;;;2.40;85.72;98356.09;103536;1300;24367;-25
2022/03/30 02:02:07;;;;;;;33.50;15.60;;;;;;;2.26;86.50;98355.79;103293;1304;24210;-28
2022/03/30 02:04:35;;;;;;;40.60;17.20;;;;;;;2.26;86.26;98352.45;103575;1300;24221;-28
2022/03/30 02:07:02;;;;;;;44.10;18.90;;;;;;;2.40;85.86;98352.87;103572;1300;22508;-28
2022/03/30 02:09:28;;;;;;;44.40;17.80;;;;;;;2.22;86.38;98353.11;103416;1302;22516;-28
2022/03/30 02:11:54;;;;;;;44.50;17.40;;;;;;;2.20;86.60;98353.73;103574;1300;22514;-26
2022/03/30 02:14:20;;;;;;;45.50;17.00;;;;;;;2.03;87.34;98352.95;103569;1300;24668;-30
2022/03/30 02:16:47;;;;;;;44.40;20.00;;;;;;;2.08;87.34;98345.17;103658;1300;24304;-25
2022/03/30 02:19:13;;;;;;;32.90;16.20;;;;;;;2.11;87.35;98343.54;103551;1299;24306;-28
2022/03/30 02:21:39;;;;;;;28.10;14.10;;;;;;;2.39;86.74;98338.32;103569;1300;23652;-30
2022/03/30 02:24:06;;;;;;;40.20;19.70;;;;;;;2.38;86.27;98340.02;103558;1300;24383;-29
2022/03/30 02:26:33;;;;;;;39.30;18.90;;;;;;;2.51;86.21;98332.02;103547;1300;24311;-29
2022/03/30 02:28:58;;;;;;;50.30;16.80;;;;;;;2.18;86.72;98338.35;103551;1300;24252;-26
2022/03/30 02:31:24;;;;;;;37.90;18.60;;;;;;;2.01;87.84;98336.96;103519;1300;25095;-29
2022/03/30 02:33:50;;;;;;;45.60;19.30;;;;;;;2.01;88.17;98336.41;103515;1299;25474;-25
2022/03/30 02:36:16;;;;;;;41.10;18.70;;;;;;;1.97;88.01;98331.67;103508;1300;24972;-27
2022/03/30 02:38:42;;;;;;;43.50;18.40;;;;;;;1.98;87.96;98330.12;103532;1300;24373;-28
2022/03/30 02:41:09;;;;;;;30.80;15.50;;;;;;;2.00;87.75;98329.79;103576;1300;24259;-28
2022/03/30 02:43:35;;;;;;;41.10;18.40;;;;;;;1.99;87.81;98325.98;103552;1300;24253;-29
2022/03/30 02:46:01;;;;;;;32.40;15.60;;;;;;;1.86;88.24;98330.37;103522;1300;24355;-26
2022/03/30 02:50:58;;;;;;;38.40;18.20;;;;;;;2.03;87.42;98334.75;103498;1300;23517;-25
2022/03/30 02:53:24;;;;;;;44.00;19.90;;;;;;;2.07;87.87;98330.61;103499;1300;24246;-29
2022/03/30 02:55:50;;;;;;;37.30;13.60;;;;;;;1.96;87.74;98333.20;103538;1300;22512;-29
2022/03/30 02:58:16;;;;;;;35.40;16.30;;;;;;;1.88;88.00;98330.45;103560;1300;24307;-29
2022/03/30 03:00:42;;;;;;;34.50;15.70;;;;;;;1.99;87.88;98331.88;103558;1300;22502;-27
2022/03/30 03:03:08;;;;;;;41.40;17.80;;;;;;;1.90;88.06;98328.73;103521;1299;24216;-25
2022/03/30 03:05:35;;;;;;;47.10;17.70;;;;;;;1.83;88.09;98329.61;103579;1300;23490;-25
2022/03/30 03:08:01;;;;;;;39.30;17.50;;;;;;;1.83;88.20;98326.64;103534;1300;24243;-26
2022/03/30 03:10:27;;;;;;;38.90;15.30;;;;;;;1.72;88.38;98322.44;103584;1300;24341;-30
2022/03/30 03:12:53;;;;;;;44.20;17.80;;;;;;;1.58;88.69;98326.05;103568;1300;24321;-25
2022/03/30 03:15:19;;;;;;;40.40;18.00;;;;;;;1.53;88.83;98327.14;103541;1300;25015;-29
2022/03/30 03:17:45;;;;;;;42.90;17.40;;;;;;;1.56;88.61;98327.66;103546;1300;24003;-25
2022/03/30 03:20:11;;;;;;;43.50;17.90;;;;;;;1.42;89.03;98323.56;103561;1300;24403;-26
2022/03/30 03:22:38;;;;;;;31.90;15.90;;;;;;;1.36;89.60;98328.19;103517;1302;24479;-29
2022/03/30 03:25:04;;;;;;;44.10;18.30;;;;;;;1.37;89.70;98326.21;103611;1300;24277;-30
2022/03/30 03:27:30;;;;;;;38.00;15.50;;;;;;;1.38;89.22;98326.08;103521;1300;22505;-25
2022/03/30 03:29:56;;;;;;;42.20;17.70;;;;;;;1.49;88.79;98325.30;103528;1300;25224;-26
2022/03/30 03:32:21;;;;;;;70.40;16.30;;;;;;;1.52;88.63;98327.20;103392;1300;24347;-28
2022/03/30 03:34:47;;;;;;;30.90;14.10;;;;;;;1.45;88.74;98324.43;103554;1300;24301;-25
2022/03/30 03:37:13;;;;;;;46.70;17.60;;;;;;;1.34;88.90;98328.05;103578;1300;23639;-29
2022/03/30 03:39:40;;;;;;;43.20;18.70;;;;;;;1.20;89.19;98326.98;103512;1300;24272;-28
2022/03/30 03:42:06;;;;;;;31.20;15.10;;;;;;;1.11;89.66;98327.02;103556;1300;24228;-29
2022/03/30 03:44:31;;;;;;;35.70;17.20;;;;;;;1.06;89.74;98327.02;103555;1300;24226;-29
2022/03/30 03:46:57;;;;;;;45.20;19.50;;;;;;;0.97;89.62;98328.36;103515;1300;24470;-26
2022/03/30 03:49:23;;;;;;;33.90;16.30;;;;;;;0.93;90.55;98322.40;103528;1300;22508;-26
2022/03/30 03:51:49;;;;;;;39.90;16.30;;;;;;;0.94;90.63;98318.38;103505;1300;24316;-27
2022/03/30 03:54:14;;;;;;;44.10;19.20;;;;;;;0.96;90.70;98318.88;103518;1300;23600;-24
2022/03/30 03:56:40;;;;;;;42.10;18.00;;;;;;;0.93;90.93;98322.73;103526;1300;22580;-28
2022/03/30 03:59:06;;;;;;;46.80;18.40;;;;;;;0.89;91.69;98321.05;103558;1300;24218;-27
2022/03/30 04:01:32;;;;;;;38.90;19.10;;;;;;;0.87;90.80;98323.49;103567;1300;24214;-25
2022/03/30 04:03:58;;;;;;;50.20;22.70;;;;;;;0.82;90.38;98325.98;103523;1300;23894;-30
2022/03/30 04:06:25;;;;;;;45.50;18.70;;;;;;;0.71;90.77;98324.85;103412;1302;24236;-29
2022/03/30 04:08:50;;;;;;;52.00;20.30;;;;;;;0.64;90.73;98327.34;103488;1300;24213;-25
2022/03/30 04:11:16;;;;;;;54.20;23.10;;;;;;;0.59;90.12;98328.78;103466;1302;24499;-27
2022/03/30 04:13:42;;;;;;;112.10;44.40;;;;;;;0.57;90.53;98330.25;103222;1300;474568;-30
2022/03/30 04:16:08;;;;;;;94.60;32.90;;;;;;;0.58;89.92;98328.20;103567;1300;24317;-29
2022/03/30 04:18:34;;;;;;;125.70;38.30;;;;;;;0.54;89.66;98322.27;103528;1300;24214;-26
2022/03/30 04:21:00;;;;;;;103.00;34.70;;;;;;;0.50;89.33;98322.56;103479;1300;24293;-30
2022/03/30 04:23:26;;;;;;;103.00;34.50;;;;;;;0.42;89.25;98325.04;103550;1300;24222;-29
2022/03/30 04:25:52;;;;;;;87.90;33.80;;;;;;;0.37;90.08;98323.47;103543;1300;22622;-27
2022/03/30 04:28:17;;;;;;;78.40;27.70;;;;;;;0.36;90.04;98325.19;103505;1300;25112;-25
2022/03/30 04:30:44;;;;;;;88.80;37.90;;;;;;;0.34;89.87;98328.53;103513;1300;24270;-28
2022/03/30 04:33:10;;;;;;;73.10;29.00;;;;;;;0.25;89.31;98331.70;103588;1300;23799;-26
2022/03/30 04:35:36;;;;;;;82.00;27.50;;;;;;;0.17;88.85;98330.27;103572;1300;25226;-29
2022/03/30 04:38:02;;;;;;;81.80;32.70;;;;;;;0.07;88.59;98331.10;103548;1300;24306;-27
2022/03/30 04:40:28;;;;;;;86.40;36.90;;;;;;;0.01;88.56;98333.14;103539;1300;24355;-26
2022/03/30 04:42:55;;;;;;;90.00;35.50;;;;;;;-0.04;88.47;98330.96;103519;1300;24192;-29
2022/03/30 04:45:21;;;;;;;59.70;25.70;;;;;;;-0.10;88.40;98331.06;103502;1300;24299;-24
2022/03/30 04:47:47;;;;;;;61.80;25.30;;;;;;;-0.14;88.65;98331.66;103602;1300;23610;-26
2022/03/30 04:50:13;;;;;;;53.60;24.00;;;;;;;-0.14;88.72;98331.70;103557;1300;22726;-26
2022/03/30 04:52:39;;;;;;;70.40;27.70;;;;;;;-0.14;89.00;98329.25;103592;1300;24297;-29
2022/03/30 04:55:05;;;;;;;55.10;24.00;;;;;;;-0.17;89.30;98331.25;103567;1300;24012;-26
2022/03/30 04:57:31;;;;;;;224.90;73.60;;;;;;;-0.13;89.64;98335.40;103549;1300;22505;-30
2022/03/30 04:59:57;;;;;;;425.40;163.20;;;;;;;-0.20;89.47;98334.06;103536;1299;22746;-29
2022/03/30 05:02:23;;;;;;;196.40;71.50;;;;;;;-0.22;89.89;98333.04;103421;1302;24217;-30
2022/03/30 05:04:49;;;;;;;79.80;27.00;;;;;;;-0.23;90.00;98331.73;103558;1300;24300;-28
2022/03/30 05:07:14;;;;;;;59.20;21.60;;;;;;;-0.21;90.29;98331.71;103533;1299;24013;-26
2022/03/30 05:09:41;;;;;;;71.60;22.10;;;;;;;-0.14;90.40;98329.92;103518;1301;24240;-28
2022/03/30 05:12:07;;;;;;;57.40;22.20;;;;;;;-0.06;90.37;98328.75;103531;1300;24217;-28
2022/03/30 05:14:33;;;;;;;59.00;20.90;;;;;;;0.07;90.71;98326.77;103577;1300;24263;-25
2022/03/30 05:16:59;;;;;;;48.60;20.30;;;;;;;0.16;91.22;98321.88;103555;1301;24378;-28
2022/03/30 05:19:25;;;;;;;54.20;19.30;;;;;;;0.28;91.52;98316.79;103578;1300;22532;-29
2022/03/30 05:21:52;;;;;;;44.70;19.20;;;;;;;0.45;92.00;98321.79;103512;1300;24774;-28
2022/03/30 05:24:17;;;;;;;55.30;21.90;;;;;;;0.65;92.09;98325.66;103556;1301;24257;-28
2022/03/30 05:26:43;;;;;;;59.40;24.80;;;;;;;0.87;91.91;98326.33;103613;1300;24224;-26
2022/03/30 05:29:09;;;;;;;44.40;21.10;;;;;;;1.03;91.87;98327.91;103589;1300;22774;-30
2022/03/30 05:31:35;;;;;;;57.80;23.50;;;;;;;1.14;91.88;98328.13;103550;1300;24276;-26
2022/03/30 05:34:01;;;;;;;55.80;21.80;;;;;;;1.24;91.60;98329.86;103355;1302;24295;-25
2022/03/30 05:36:27;;;;;;;45.30;20.60;;;;;;;1.35;91.32;98326.20;103562;1300;23914;-25
2022/03/30 05:38:53;;;;;;;64.70;27.00;;;;;;;1.48;91.06;98326.77;103582;1300;22506;-28
2022/03/30 05:41:19;;;;;;;61.10;26.10;;;;;;;1.65;90.96;98328.10;103362;1300;22949;-25
2022/03/30 05:43:45;;;;;;;51.40;21.50;;;;;;;1.91;90.90;98327.41;103532;1300;22503;-29
2022/03/30 05:46:11;;;;;;;54.90;25.70;;;;;;;2.06;90.71;98326.10;103577;1300;22511;-28
2022/03/30 05:48:37;;;;;;;85.20;33.20;;;;;;;2.17;90.43;98327.13;103628;1300;23554;-26
2022/03/30 05:51:03;;;;;;;62.90;30.70;;;;;;;2.30;90.43;98324.02;103593;1300;24219;-28
2022/03/30 05:53:29;;;;;;;57.50;25.30;;;;;;;2.37;89.92;98327.61;103583;1300;24226;-25
2022/03/30 05:55:55;;;;;;;58.60;22.80;;;;;;;2.46;89.49;98324.38;103578;1300;23651;-28
2022/03/30 05:58:21;;;;;;;45.40;21.20;;;;;;;2.47;89.07;98323.53;103538;1300;24213;-25
2022/03/30 06:00:47;;;;;;;52.00;23.30;;;;;;;2.50;88.90;98323.52;103562;1300;22493;-28
2022/03/30 06:03:13;;;;;;;49.50;20.80;;;;;;;2.59;88.44;98324.77;103593;1300;24188;-28
2022/03/30 06:05:39;;;;;;;56.00;23.80;;;;;;;2.66;88.85;98324.41;103558;1300;24324;-24
2022/03/30 06:08:05;;;;;;;51.00;19.80;;;;;;;2.84;88.64;98323.60;103558;1300;24333;-28
2022/03/30 06:10:31;;;;;;;59.10;21.50;;;;;;;2.99;88.44;98324.91;103623;1300;24214;-28
2022/03/30 06:12:57;;;;;;;41.50;20.00;;;;;;;3.11;88.08;98325.23;103534;1300;24264;-31
2022/03/30 06:15:23;;;;;;;47.40;20.50;;;;;;;3.20;87.81;98326.34;103579;1300;22640;-28
2022/03/30 06:17:50;;;;;;;44.90;18.90;;;;;;;3.32;87.90;98329.22;103505;1300;24221;-25
2022/03/30 06:20:16;;;;;;;37.50;18.60;;;;;;;3.50;87.81;98328.19;103591;1300;24370;-24
2022/03/30 06:22:41;;;;;;;41.50;18.30;;;;;;;3.57;87.68;98327.56;103628;1300;24696;-28
2022/03/30 06:25:09;;;;;;;37.70;19.60;;;;;;;3.72;87.70;98331.10;103596;1300;22500;-28
2022/03/30 06:27:36;;;;;;;43.10;22.40;;;;;;;3.88;87.58;98327.21;103399;1300;25016;-25
2022/03/30 06:30:03;;;;;;;47.80;23.90;;;;;;;3.92;87.15;98328.30;103491;1300;24240;-26
2022/03/30 06:32:30;;;;;;;39.60;21.10;;;;;;;4.13;87.29;98327.61;103611;1300;22805;-28
2022/03/30 06:34:55;;;;;;;58.20;22.80;;;;;;;4.25;86.08;98332.52;103407;1302;22627;-25
2022/03/30 06:37:21;;;;;;;48.20;22.20;;;;;;;4.23;85.63;98328.82;103526;1302;24476;-28
2022/03/30 06:39:48;;;;;;;49.50;21.20;;;;;;;4.25;85.43;98329.38;103572;1300;23201;-28
2022/03/30 06:42:16;;;;;;;39.60;20.10;;;;;;;4.25;85.38;98325.73;103594;1300;24288;-25
2022/03/30 06:44:43;;;;;;;41.40;18.70;;;;;;;4.33;84.64;98324.52;103632;1300;24348;-26
2022/03/30 06:47:09;;;;;;;42.20;20.30;;;;;;;4.33;85.05;98326.59;103575;1300;24302;-29
2022/03/30 06:49:37;;;;;;;39.60;17.80;;;;;;;4.47;85.85;98322.74;103580;1300;24256;-28
2022/03/30 06:52:04;;;;;;;34.00;18.50;;;;;;;4.88;84.32;98324.36;103581;1300;24257;-28
2022/03/30 06:54:30;;;;;;;37.10;17.30;;;;;;;5.05;81.71;98325.05;103554;1300;22517;-30
2022/03/30 06:56:56;;;;;;;39.50;20.80;;;;;;;4.99;82.20;98325.05;103599;1300;24468;-27
2022/03/30 06:59:21;;;;;;;47.60;20.50;;;;;;;5.27;82.18;98323.59;103534;1300;22506;-30
2022/03/30 07:01:47;;;;;;;46.90;17.80;;;;;;;5.58;82.24;98325.58;103551;1300;24348;-25
2022/03/30 07:04:13;;;;;;;33.40;17.90;;;;;;;6.00;80.25;98325.43;103558;1300;24276;-25
2022/03/30 07:10:14;;;;;;;30.90;17.00;;;;;;;6.04;79.67;98328.00;103562;1300;23639;-28
2022/03/30 07:11:54;;;;;;;36.80;18.80;;;;;;;6.36;78.48;98325.89;103573;1300;24247;-28
2022/03/30 07:14:19;;;;;;;37.80;19.90;;;;;;;6.54;76.72;98327.71;103550;1300;23644;-25
2022/03/30 07:16:45;;;;;;;31.90;18.90;;;;;;;6.47;78.08;98328.17;103556;1300;24214;-28
2022/03/30 07:19:11;;;;;;;34.50;20.20;;;;;;;6.83;77.48;98325.04;103527;1300;24213;-27
2022/03/30 07:21:37;;;;;;;39.20;22.20;;;;;;;6.92;75.78;98324.54;103409;1301;24226;-27
2022/03/30 07:24:04;;;;;;;33.80;17.80;;;;;;;7.03;77.30;98326.30;103684;1300;24221;-27
2022/03/30 07:26:30;;;;;;;37.10;19.60;;;;;;;7.39;77.26;98322.82;103577;1300;22490;-28
2022/03/30 07:28:56;;;;;;;43.40;18.90;;;;;;;7.62;76.69;98325.13;103574;1300;24027;-28
2022/03/30 07:31:21;;;;;;;33.30;18.10;;;;;;;8.06;76.64;98319.78;103485;1300;24407;-27
2022/03/30 07:33:47;;;;;;;41.20;19.60;;;;;;;8.47;74.86;98321.14;103449;1302;24264;-30
2022/03/30 07:36:13;;;;;;;44.60;20.50;;;;;;;8.94;75.36;98322.57;103554;1300;24317;-28
2022/03/30 07:38:39;;;;;;;41.50;21.30;;;;;;;9.30;72.16;98321.16;103500;1300;24218;-27
2022/03/30 07:41:05;;;;;;;30.20;17.90;;;;;;;9.52;70.14;98323.21;103557;1300;24382;-26
2022/03/30 07:43:30;;;;;;;29.10;16.80;;;;;;;9.76;69.63;98323.05;103559;1300;24221;-29
2022/03/30 07:45:57;;;;;;;43.20;17.90;;;;;;;9.90;69.71;98326.66;103392;1303;24321;-28
2022/03/30 07:48:22;;;;;;;38.80;19.60;;;;;;;10.20;67.15;98327.03;103527;1302;24285;-25
2022/03/30 07:50:48;;;;;;;30.20;18.60;;;;;;;10.45;67.09;98320.74;103531;1300;24225;-25
2022/03/30 07:53:14;;;;;;;36.40;20.50;;;;;;;10.88;68.56;98318.30;103545;1300;25323;-25
2022/03/30 07:55:40;;;;;;;35.20;18.90;;;;;;;11.11;67.99;98315.57;103324;1300;24292;-28
2022/03/30 07:58:05;;;;;;;33.90;19.20;;;;;;;11.40;65.86;98313.80;103462;1300;24304;-28
2022/03/30 08:00:31;;;;;;;39.10;19.40;;;;;;;11.65;62.88;98312.04;103594;1300;23603;-25
2022/03/30 08:02:58;;;;;;;38.00;20.40;;;;;;;11.65;63.69;98312.34;103513;1300;24218;-28
2022/03/30 08:05:24;;;;;;;31.80;19.50;;;;;;;11.84;63.20;98306.91;103579;1300;24215;-28
2022/03/30 08:07:50;;;;;;;44.90;20.40;;;;;;;12.11;62.19;98310.80;103476;1302;24325;-28
2022/03/30 08:10:16;;;;;;;37.30;19.70;;;;;;;11.85;59.97;98309.14;103559;1300;24238;-31
2022/03/30 08:12:42;;;;;;;27.90;16.20;;;;;;;12.12;60.72;98306.69;103602;1300;22694;-26
2022/03/30 08:15:09;;;;;;;24.40;15.10;;;;;;;11.98;60.43;98306.71;103576;1300;24295;-30
2022/03/30 08:17:35;;;;;;;28.60;18.50;;;;;;;12.00;58.62;98309.58;103384;1300;24387;-30
2022/03/30 08:20:03;;;;;;;22.10;15.50;;;;;;;12.25;57.70;98308.91;103525;1300;24326;-24
2022/03/30 08:22:29;;;;;;;28.40;15.90;;;;;;;12.75;56.72;98308.02;103528;1302;22501;-28
2022/03/30 08:24:56;;;;;;;36.20;17.70;;;;;;;12.82;55.66;98303.58;103558;1300;24302;-29
2022/03/30 08:27:23;;;;;;;33.30;16.80;;;;;;;12.88;53.19;98304.02;103604;1300;24342;-25
2022/03/30 08:29:50;;;;;;;32.20;15.20;;;;;;;12.92;54.14;98301.26;103512;1300;24226;-25
2022/03/30 08:32:16;;;;;;;24.80;13.90;;;;;;;12.88;53.00;98298.92;103571;1300;24238;-28
2022/03/30 08:34:43;;;;;;;28.80;15.60;;;;;;;13.26;52.78;98295.31;103590;1300;22842;-29
2022/03/30 08:37:09;;;;;;;23.20;14.40;;;;;;;13.53;53.39;98295.42;103594;1300;24347;-25
2022/03/30 08:39:36;;;;;;;24.60;15.40;;;;;;;13.67;55.06;98296.79;103610;1300;24925;-25
2022/03/30 08:42:03;;;;;;;33.40;17.20;;;;;;;13.86;53.08;98296.83;103398;1300;24176;-24
2022/03/30 08:44:30;;;;;;;25.20;17.20;;;;;;;13.99;52.02;98295.64;103560;1300;24214;-25
2022/03/30 08:46:55;;;;;;;28.30;15.60;;;;;;;13.85;50.17;98290.75;103585;1300;24213;-25
2022/03/30 08:49:21;;;;;;;21.80;15.90;;;;;;;13.97;50.97;98290.63;103536;1300;23968;-28
2022/03/30 08:51:47;;;;;;;31.10;13.30;;;;;;;14.42;47.98;98284.19;103561;1300;24304;-25
2022/03/30 08:54:14;;;;;;;21.40;14.20;;;;;;;14.33;47.46;98279.29;103467;1300;24237;-30
2022/03/30 08:56:40;;;;;;;30.50;16.70;;;;;;;13.35;48.52;98279.20;103581;1300;24319;-31
2022/03/30 08:59:09;;;;;;;28.40;17.00;;;;;;;13.62;49.46;98272.23;103548;1300;24279;-27
2022/03/30 09:01:36;;;;;;;22.20;15.00;;;;;;;13.78;48.89;98274.44;103351;1300;24237;-30
2022/03/30 09:04:03;;;;;;;25.30;14.90;;;;;;;13.39;47.83;98271.70;103553;1300;24199;-30
2022/03/30 09:06:30;;;;;;;26.50;15.20;;;;;;;12.89;48.11;98272.05;103566;1300;24280;-27
2022/03/30 09:08:57;;;;;;;24.80;13.50;;;;;;;12.69;49.85;98274.34;103580;1300;22510;-25
2022/03/30 09:11:26;;;;;;;21.80;14.30;;;;;;;13.74;48.53;98273.71;103571;1300;22502;-28
2022/03/30 09:13:59;;;;;;;26.60;16.30;;;;;;;13.89;46.83;98272.41;103643;1300;24377;-29
2022/03/30 09:16:24;;;;;;;23.40;13.50;;;;;;;13.05;47.39;98273.05;103582;1300;24307;-25
2022/03/30 09:18:57;;;;;;;17.70;11.50;;;;;;;13.18;47.38;98269.33;103496;1300;22516;-29
2022/03/30 09:21:39;;;;;;;19.00;11.30;;;;;;;13.70;45.95;98267.13;103557;1300;23895;-25
2022/03/30 09:24:05;;;;;;;36.70;14.90;;;;;;;12.92;46.80;98260.88;103518;1300;22618;-29
2022/03/30 09:26:31;;;;;;;25.40;14.00;;;;;;;13.18;46.35;98260.58;103560;1300;24418;-25
2022/03/30 09:28:56;;;;;;;22.10;13.20;;;;;;;12.76;47.83;98260.73;103554;1300;24218;-25
2022/03/30 09:31:22;;;;;;;30.80;13.20;;;;;;;12.52;47.44;98263.99;103387;1302;23776;-24
2022/03/30 09:33:48;;;;;;;24.80;11.30;;;;;;;11.90;48.67;98265.52;103614;1300;22881;-25
2022/03/30 09:36:20;;;;;;;26.50;13.90;;;;;;;11.78;49.56;98263.92;103568;1300;22521;-26
2022/03/30 09:38:46;;;;;;;20.50;12.30;;;;;;;11.95;48.98;98259.56;103554;1300;24372;-27
2022/03/30 09:41:12;;;;;;;31.00;15.80;;;;;;;11.55;50.39;98259.27;103418;1300;24245;-30
2022/03/30 09:43:41;;;;;;;19.50;12.50;;;;;;;11.29;50.88;98257.93;103455;1301;24207;-30
2022/03/30 09:46:08;;;;;;;31.60;14.70;;;;;;;11.17;51.10;98254.80;103634;1301;24197;-30
2022/03/30 09:48:38;;;;;;;23.10;13.40;;;;;;;11.11;51.15;98253.17;103522;1300;24321;-30
2022/03/30 09:51:06;;;;;;;16.90;10.30;;;;;;;11.13;50.85;98248.72;103575;1300;23845;-30
2022/03/30 09:53:34;;;;;;;20.20;11.50;;;;;;;11.35;49.15;98243.12;103613;1300;25241;-27
2022/03/30 09:56:01;;;;;;;18.70;10.80;;;;;;;11.16;49.44;98238.30;103956;1302;24284;-26
2022/03/30 09:58:30;;;;;;;17.60;9.60;;;;;;;11.08;50.10;98238.09;104022;1300;22621;-26
2022/03/30 10:01:03;;;;;;;24.50;13.20;;;;;;;11.26;49.97;98236.43;103784;1302;24061;-27
2022/03/30 10:03:36;;;;;;;21.70;11.10;;;;;;;11.35;50.17;98233.23;103513;1302;25346;-29
2022/03/30 10:06:02;;;;;;;27.70;11.70;;;;;;;11.66;49.94;98232.91;103683;1300;25663;-27
2022/03/30 10:08:28;;;;;;;21.60;13.50;;;;;;;11.91;49.14;98230.43;103539;1300;24259;-26
2022/03/30 10:10:53;;;;;;;35.80;13.50;;;;;;;12.01;48.49;98227.95;103536;1300;24231;-30
2022/03/30 10:13:19;;;;;;;29.30;11.20;;;;;;;11.49;48.28;98229.36;103403;1302;24363;-24
2022/03/30 10:15:45;;;;;;;18.30;10.40;;;;;;;11.44;48.76;98230.75;103568;1300;24257;-30
2022/03/30 10:18:10;;;;;;;19.10;9.70;;;;;;;12.19;47.19;98223.38;103562;1300;24217;-25
2022/03/30 10:20:36;;;;;;;14.50;10.70;;;;;;;11.98;45.93;98226.41;103556;1300;22514;-25
2022/03/30 10:23:10;;;;;;;24.00;11.10;;;;;;;11.62;46.99;98230.00;103552;1300;24003;-25
2022/03/30 10:25:43;;;;;;;22.80;10.20;;;;;;;11.79;47.28;98222.15;103569;1300;23497;-25
2022/03/30 10:28:11;;;;;;;18.30;9.60;;;;;;;11.89;47.18;98217.73;103580;1300;23055;-29
2022/03/30 10:30:39;;;;;;;16.30;10.80;;;;;;;11.98;47.33;98215.71;103592;1300;23885;-29
2022/03/30 10:33:04;;;;;;;19.30;11.60;;;;;;;12.05;47.33;98211.99;103523;1300;23604;-25
2022/03/30 10:35:36;;;;;;;14.40;9.40;;;;;;;12.44;46.17;98209.05;103555;1300;23581;-28
2022/03/30 10:38:02;;;;;;;14.50;9.00;;;;;;;11.91;46.68;98210.13;103563;1300;24487;-31
2022/03/30 10:40:28;;;;;;;27.70;8.40;;;;;;;12.11;47.86;98209.23;103605;1300;24238;-28
2022/03/30 10:42:54;;;;;;;18.80;8.60;;;;;;;12.50;46.90;98207.10;103438;1302;24233;-25
2022/03/30 10:45:23;;;;;;;12.30;8.70;;;;;;;13.02;43.93;98204.80;103532;1300;24214;-28
2022/03/30 10:47:57;;;;;;;18.40;8.90;;;;;;;12.90;43.50;98197.89;103588;1302;24377;-28
2022/03/30 10:50:42;;;;;;;;;;;;;;;12.82;45.12;98196.13;103577;1300;24120;-28
2022/03/30 10:53:15;;;;;;;15.40;8.90;;;;;;;13.29;43.92;98195.08;103466;1301;24308;-23
2022/03/30 10:55:41;;;;;;;10.10;7.30;;;;;;;12.90;43.41;98193.16;103590;1300;24247;-26
2022/03/30 10:58:08;;;;;;;16.80;9.00;;;;;;;12.93;43.87;98189.66;103524;1300;24214;-27
2022/03/30 11:00:36;;;;;;;12.70;6.70;;;;;;;13.02;43.34;98189.89;103536;1301;24247;-30
2022/03/30 11:03:05;;;;;;;15.20;9.10;;;;;;;12.74;42.76;98184.55;103629;1302;24205;-24
2022/03/30 11:05:31;;;;;;;15.00;10.00;;;;;;;12.72;44.54;98182.73;103584;1300;24202;-28
2022/03/30 11:07:57;;;;;;;12.70;8.60;;;;;;;12.83;43.88;98184.82;103543;1301;22499;-27
2022/03/30 11:10:25;;;;;;;13.50;8.20;;;;;;;12.40;44.56;98184.23;103500;1301;24240;-28
2022/03/30 11:12:56;;;;;;;17.20;9.00;;;;;;;12.51;44.98;98180.98;103584;1300;24215;-25
2022/03/30 11:15:22;;;;;;;14.20;10.20;;;;;;;12.71;44.32;98177.88;103567;1300;26235;-29
2022/03/30 11:17:48;;;;;;;17.80;9.60;;;;;;;12.68;43.85;98175.83;103327;1300;24263;-29